Terminal Aerodrome Forecast
Issued by NWS Charleston, WV

Home | Current Version | Previous Version | Text Only | Print | Product List | Glossary On
Versions: 1 2 3 4 5 6 7 8 9 10 11 12 13 14 15 16 17 18 19 20 21
000
FTUS41 KRLX 011100
TAFBKW
TAF
KBKW 011120Z 0112/0212 13007KT P6SM BKN080
     FM011400 13007KT P6SM BKN012
     FM011700 13009KT P6SM BKN025
     FM020000 12005KT P6SM BKN040=

USA.gov is the U.S. government's official web portal to all federal, state and local government web resources and services.